createdAt,value
2017-09-22T00:00:05.842Z,84.1
2017-09-22T00:05:05.112Z,84.2
2017-09-22T00:10:31.206Z,84.4
2017-09-22T00:15:05.466Z,84.5
2017-09-22T00:20:10.859Z,84.3
2017-09-22T00:25:02.627Z,84.3
2017-09-22T00:30:10.951Z,84.6
2017-09-22T00:35:10.292Z,84.6
2017-09-22T00:40:03.501Z,84.6
2017-09-22T00:45:05.814Z,84.7
2017-09-22T00:50:07.622Z,84.8
2017-09-22T00:55:05.851Z,84.9
2017-09-22T01:00:02.603Z,84.9
2017-09-22T01:05:15.271Z,85.1
2017-09-22T01:10:11.089Z,85.1
2017-09-22T01:15:05.329Z,85.2
2017-09-22T01:20:10.755Z,85.2
2017-09-22T01:25:03.542Z,85.2
2017-09-22T01:30:10.878Z,85.1
2017-09-22T01:35:15.314Z,85
2017-09-22T01:40:06.079Z,84.8
2017-09-22T01:45:02.842Z,84.8
2017-09-22T01:50:02.590Z,85.4
2017-09-22T01:55:03.351Z,85.7
2017-09-22T02:00:15.781Z,85.1
2017-09-22T02:05:05.046Z,84.5
2017-09-22T02:10:05.838Z,84.2
2017-09-22T02:15:05.122Z,84.3
2017-09-22T02:20:02.945Z,84.1
2017-09-22T02:25:10.320Z,84.1
2017-09-22T02:30:18.273Z,84.3
2017-09-22T02:35:23.289Z,84.5
2017-09-22T02:40:07.585Z,84.1
2017-09-22T02:45:10.905Z,84.1
2017-09-22T02:50:05.193Z,84.5
2017-09-22T02:55:02.964Z,84.5
2017-09-22T03:00:05.273Z,84.3
2017-09-22T03:05:13.161Z,84.1
2017-09-22T03:10:21.105Z,83.9
2017-09-22T03:15:05.385Z,83.9
2017-09-22T03:20:03.191Z,83.9
2017-09-22T03:25:10.535Z,84.1
2017-09-22T03:30:05.837Z,84.1
2017-09-22T03:35:05.637Z,84.6
2017-09-22T03:40:02.873Z,84.4
2017-09-22T03:45:05.168Z,84.3
2017-09-22T03:50:25.732Z,84.2
2017-09-22T03:55:03.519Z,84.2
2017-09-22T04:00:20.975Z,84.4
2017-09-22T04:05:07.765Z,84.4
2017-09-22T04:10:05.555Z,84.5
2017-09-22T04:15:10.897Z,84.8
2017-09-22T04:20:30.536Z,85.1
2017-09-22T04:25:26.047Z,84.7
2017-09-22T04:30:07.843Z,84.6
2017-09-22T04:35:12.729Z,84.5
2017-09-22T04:40:18.151Z,84.7
2017-09-22T04:45:03.182Z,84.6
2017-09-22T04:50:10.526Z,85
2017-09-22T04:55:31.099Z,84.7
2017-09-22T05:00:07.905Z,84.7
2017-09-22T05:05:05.175Z,84.8
2017-09-22T05:10:03.405Z,84.8
2017-09-22T05:15:03.163Z,85.2
2017-09-22T05:20:10.597Z,85
2017-09-22T05:25:08.399Z,85.2
2017-09-22T05:30:08.203Z,85.2
2017-09-22T05:35:02.952Z,85.2
2017-09-22T05:40:03.230Z,85.2
2017-09-22T05:45:08.062Z,85.4
2017-09-22T05:50:02.850Z,85.3
2017-09-22T05:55:05.125Z,85.3
2017-09-22T06:00:07.970Z,85.5
2017-09-22T06:05:05.310Z,85.7
2017-09-22T06:10:30.385Z,85.4
2017-09-22T06:15:08.547Z,85.2
2017-09-22T06:20:10.966Z,85
2017-09-22T06:25:10.329Z,85.1
2017-09-22T06:30:23.313Z,85.1
2017-09-22T06:35:08.124Z,85
2017-09-22T06:40:23.596Z,84.8
2017-09-22T06:45:31.185Z,84.6
2017-09-22T06:50:02.966Z,84.6
2017-09-22T06:55:20.416Z,83.9
2017-09-22T07:00:03.149Z,83.9
2017-09-22T07:05:02.907Z,83.6
2017-09-22T07:10:03.167Z,82.2
2017-09-22T07:15:02.940Z,80.9
2017-09-22T07:20:15.464Z,81.7
2017-09-22T07:25:03.205Z,81.7
2017-09-22T07:30:10.556Z,81.4
2017-09-22T07:35:05.851Z,81.1
2017-09-22T07:40:18.258Z,79.5
2017-09-22T07:45:10.607Z,78.8
2017-09-22T07:50:03.354Z,78.6
2017-09-22T07:55:03.104Z,77.2
2017-09-22T08:00:18.044Z,77.7
2017-09-22T08:05:07.850Z,75.4
2017-09-22T08:10:05.672Z,74.6
2017-09-22T08:15:21.113Z,73.2
2017-09-22T08:20:02.940Z,73.1
2017-09-22T08:25:10.257Z,73.8
2017-09-22T08:30:10.615Z,73.5
2017-09-22T08:35:03.366Z,73.4
2017-09-22T08:40:25.388Z,71.3
2017-09-22T08:45:10.709Z,71.2
2017-09-22T08:50:28.745Z,71
2017-09-22T08:55:06.043Z,70.3
2017-09-22T09:00:20.489Z,68.9
2017-09-22T09:05:05.771Z,67.7
2017-09-22T09:10:05.563Z,68.1
2017-09-22T09:15:05.873Z,68.6
2017-09-22T09:20:10.319Z,64.3
2017-09-22T09:25:03.056Z,64.3
2017-09-22T09:30:10.398Z,64.3
2017-09-22T09:35:15.803Z,63.9
2017-09-22T09:40:08.101Z,64.4
2017-09-22T09:45:02.819Z,64.4
2017-09-22T09:50:03.177Z,64.1
2017-09-22T09:55:08.000Z,63.8
2017-09-22T10:00:05.291Z,63.8
2017-09-22T10:05:05.591Z,64.5
2017-09-22T10:10:10.442Z,64.5
2017-09-22T10:15:03.215Z,64.5
2017-09-22T10:20:08.140Z,64.2
2017-09-22T10:25:07.944Z,62.9
2017-09-22T10:30:07.779Z,62.9
2017-09-22T10:35:03.523Z,62.9
2017-09-22T10:40:05.242Z,62.3
2017-09-22T10:45:08.029Z,62.9
2017-09-22T10:50:05.266Z,61.9
2017-09-22T10:55:05.540Z,62.3
2017-09-22T11:00:13.392Z,62.4
2017-09-22T11:05:03.144Z,62.4
2017-09-22T11:10:08.451Z,63.4
2017-09-22T11:15:10.793Z,63.4
2017-09-22T11:20:02.574Z,63.4
2017-09-22T11:25:05.839Z,62.6
2017-09-22T11:30:07.680Z,61.1
2017-09-22T11:35:03.437Z,61.1
2017-09-22T11:40:05.211Z,61.5
2017-09-22T11:45:02.954Z,61.4
2017-09-22T11:50:02.714Z,61
2017-09-22T11:55:08.501Z,59.3
2017-09-22T12:00:05.778Z,59.7
2017-09-22T12:05:03.515Z,59.7
2017-09-22T12:10:07.846Z,59.4
2017-09-22T12:15:10.202Z,59
2017-09-22T12:20:05.591Z,58.2
2017-09-22T12:25:10.906Z,58.5
2017-09-22T12:30:05.151Z,57.8
2017-09-22T12:35:02.887Z,57.8
2017-09-22T12:40:03.103Z,56.8
2017-09-22T12:45:07.961Z,54.4
2017-09-22T12:50:05.225Z,54.9
2017-09-22T12:55:10.582Z,52.1
2017-09-22T13:00:03.309Z,52
2017-09-22T13:05:03.082Z,50.6
2017-09-22T13:10:05.881Z,50.7
2017-09-22T13:15:12.828Z,50.7
2017-09-22T13:20:02.661Z,50.6
2017-09-22T13:25:03.404Z,50.4
2017-09-22T13:30:03.207Z,48.6
2017-09-22T13:35:08.021Z,50.7
2017-09-22T13:40:31.098Z,49
2017-09-22T13:45:15.505Z,46.6
2017-09-22T13:50:07.788Z,45.3
2017-09-22T13:55:12.692Z,46.6
2017-09-22T14:00:21.138Z,46.9
2017-09-22T14:05:07.911Z,47
2017-09-22T14:10:10.795Z,49.6
2017-09-22T14:15:10.184Z,49.5
2017-09-22T14:20:08.085Z,49
2017-09-22T14:25:07.882Z,49.7
2017-09-22T14:30:07.690Z,49.6
2017-09-22T14:35:03.456Z,49.6
2017-09-22T14:40:05.299Z,49.4
2017-09-22T14:45:08.119Z,49.6
2017-09-22T14:50:02.843Z,49.6
2017-09-22T14:55:07.659Z,48
2017-09-22T15:00:10.996Z,47.8
2017-09-22T15:05:02.779Z,47.7
2017-09-22T15:10:03.032Z,47.8
2017-09-22T15:15:02.830Z,45.9
2017-09-22T15:20:05.212Z,45.5
2017-09-22T15:25:08.350Z,44.8
2017-09-22T15:30:08.138Z,45.8
2017-09-22T15:35:02.901Z,45.8
2017-09-22T15:40:20.839Z,46.6
2017-09-22T15:45:05.099Z,46.4
2017-09-22T15:50:18.074Z,46.7
2017-09-22T15:55:07.882Z,47.1
2017-09-22T16:00:10.227Z,47.1
2017-09-22T16:05:02.996Z,47.1
2017-09-22T16:10:03.206Z,48.2
2017-09-22T16:15:08.014Z,49.3
2017-09-22T16:20:12.970Z,50.1
2017-09-22T16:25:02.745Z,50.1
2017-09-22T16:30:06.077Z,52.5
2017-09-22T16:35:12.960Z,54.1
2017-09-22T16:40:08.272Z,54.6
2017-09-22T16:45:05.492Z,55.4
2017-09-22T16:50:05.786Z,56.7
2017-09-22T16:55:06.052Z,58.2
2017-09-22T17:00:07.866Z,58.9
2017-09-22T17:05:05.154Z,59.3
2017-09-22T17:10:03.398Z,59.2
2017-09-22T17:15:08.203Z,60.8
2017-09-22T17:20:03.016Z,60.8
2017-09-22T17:25:07.823Z,63.5
2017-09-22T17:30:12.700Z,64.3
2017-09-22T17:35:05.973Z,65.3
2017-09-22T17:40:18.417Z,65.3
2017-09-22T17:45:05.710Z,66.1
2017-09-22T17:50:16.121Z,67.1
2017-09-22T17:55:02.834Z,67.1
2017-09-22T18:00:20.281Z,67.9
2017-09-22T18:05:03.033Z,67.9
2017-09-22T18:10:05.832Z,69.5
2017-09-22T18:15:10.187Z,69.9
2017-09-22T18:20:10.715Z,69.9
2017-09-22T18:25:06.015Z,69.9
2017-09-22T18:30:07.826Z,70.4
2017-09-22T18:35:10.174Z,70.9
2017-09-22T18:40:08.471Z,71
2017-09-22T18:45:03.235Z,71.1
2017-09-22T18:50:05.501Z,71.6
2017-09-22T18:55:10.849Z,71.6
2017-09-22T19:00:17.774Z,71.7
2017-09-22T19:05:13.652Z,71.9
2017-09-22T19:10:05.413Z,71.8
2017-09-22T19:15:05.698Z,72.1
2017-09-22T19:20:11.122Z,72
2017-09-22T19:25:07.929Z,72.1
2017-09-22T19:30:05.202Z,72.3
2017-09-22T19:35:18.148Z,72.8
2017-09-22T19:40:11.006Z,73
2017-09-22T19:45:02.759Z,73
2017-09-22T19:50:06.005Z,73.5
2017-09-22T19:55:07.852Z,73.6
2017-09-22T20:00:05.131Z,73.8
2017-09-22T20:05:15.537Z,73.8
2017-09-22T20:10:02.778Z,73.8
2017-09-22T20:15:03.503Z,74.1
2017-09-22T20:20:05.145Z,74.2
2017-09-22T20:25:13.042Z,74.5
2017-09-22T20:30:05.339Z,74.7
2017-09-22T20:35:08.107Z,75
2017-09-22T20:40:05.885Z,75
2017-09-22T20:45:02.636Z,75
2017-09-22T20:50:13.526Z,75.4
2017-09-22T20:55:03.275Z,75.4
2017-09-22T21:00:05.580Z,75.5
2017-09-22T21:05:10.885Z,75.6
2017-09-22T21:10:18.302Z,75.6
2017-09-22T21:15:08.083Z,75.5
2017-09-22T21:20:18.116Z,75.7
2017-09-22T21:25:05.377Z,75.6
2017-09-22T21:30:10.705Z,75.8
2017-09-22T21:35:11.050Z,75.9
2017-09-22T21:40:03.301Z,75.8
2017-09-22T21:45:05.558Z,76.4
2017-09-22T21:50:05.923Z,76.5
2017-09-22T21:55:30.491Z,76.6
2017-09-22T22:00:13.298Z,76.7
2017-09-22T22:05:05.576Z,76.8
2017-09-22T22:10:07.853Z,77.2
2017-09-22T22:15:05.103Z,77.1
2017-09-22T22:20:02.908Z,77.1
2017-09-22T22:25:10.280Z,76.8
2017-09-22T22:30:03.028Z,76.8
2017-09-22T22:35:07.947Z,77.1
2017-09-22T22:40:03.185Z,77
2017-09-22T22:45:08.016Z,77.2
2017-09-22T22:50:25.532Z,77
2017-09-22T22:55:05.791Z,77
2017-09-22T23:00:03.552Z,76.9
2017-09-22T23:05:15.989Z,77.4
2017-09-22T23:10:05.733Z,77.3
2017-09-22T23:15:03.460Z,77.3
2017-09-22T23:20:05.845Z,77.8
2017-09-22T23:25:02.616Z,77.7
2017-09-22T23:30:08.433Z,78
2017-09-22T23:35:05.701Z,78.2
2017-09-22T23:40:10.540Z,78.2
2017-09-22T23:45:05.829Z,78.1
2017-09-22T23:50:22.814Z,78.1
2017-09-22T23:55:02.544Z,78
